Time;durP1;ratioP1;P1;durP2;ratioP2;P2;SDS_P1;SDS_P2;PMS_P1;PMS_P2;Temp;Humidity;BMP_temperature;BMP_pressure;BME280_temperature;BME280_humidity;BME280_pressure;Samples;Min_cycle;Max_cycle;Signal;HPM_P1;HPM_P2
2022/02/18 00:01:47;;;;;;;13.13;9.40;;;;;;;3.72;71.49;96711.59;5070970;28;20089;-59
2022/02/18 00:04:12;;;;;;;13.68;9.63;;;;;;;3.98;70.87;96740.69;5071387;28;20465;-58
2022/02/18 00:06:38;;;;;;;13.05;9.10;;;;;;;3.98;71.45;96734.56;5071915;28;20036;-58
2022/02/18 00:09:03;;;;;;;13.18;8.68;;;;;;;4.00;70.92;96745.81;5071391;28;20028;-61
2022/02/18 00:11:29;;;;;;;13.50;9.43;;;;;;;3.99;71.24;96747.63;5071090;28;20032;-59
2022/02/18 00:13:56;;;;;;;13.20;8.73;;;;;;;4.03;71.63;96745.50;5071662;28;20444;-62
2022/02/18 00:16:21;;;;;;;13.65;8.98;;;;;;;4.04;70.70;96733.09;5071167;28;20032;-61
2022/02/18 00:18:47;;;;;;;13.02;9.10;;;;;;;4.05;70.94;96748.81;5070978;28;20048;-60
2022/02/18 00:21:13;;;;;;;13.15;8.80;;;;;;;4.06;70.73;96742.53;5071379;28;20040;-60
2022/02/18 00:23:39;;;;;;;12.68;8.68;;;;;;;4.08;70.34;96729.94;5071901;28;20024;-60
2022/02/18 00:26:05;;;;;;;12.18;8.65;;;;;;;4.07;70.54;96738.06;5070827;28;20098;-57
2022/02/18 00:28:30;;;;;;;12.10;8.57;;;;;;;4.01;71.10;96732.44;5070842;28;20032;-59
2022/02/18 00:30:56;;;;;;;13.35;8.75;;;;;;;3.81;71.03;96693.94;5071438;28;20028;-61
2022/02/18 00:33:21;;;;;;;18.08;8.75;;;;;;;4.02;71.40;96722.66;5071371;28;20043;-56
2022/02/18 00:35:47;;;;;;;11.88;8.85;;;;;;;4.07;71.34;96738.88;5070687;28;20032;-57
2022/02/18 00:38:14;;;;;;;12.80;9.18;;;;;;;4.12;71.06;96712.78;5052640;28;20036;-57
2022/02/18 00:40:40;;;;;;;11.88;8.93;;;;;;;4.15;70.50;96724.84;5071559;28;20449;-58
2022/02/18 00:43:06;;;;;;;12.13;8.18;;;;;;;4.15;70.57;96720.41;5071311;28;20036;-57
2022/02/18 00:45:32;;;;;;;13.95;8.55;;;;;;;4.16;70.55;96726.50;5070455;28;20051;-59
2022/02/18 00:47:57;;;;;;;12.73;8.30;;;;;;;4.16;70.61;96713.28;5070771;28;20389;-59
2022/02/18 00:50:24;;;;;;;13.48;8.75;;;;;;;4.17;70.76;96736.09;5071037;28;20116;-60
2022/02/18 00:52:49;;;;;;;13.35;8.48;;;;;;;4.16;70.65;96737.09;5071150;28;20032;-60
2022/02/18 00:55:15;;;;;;;13.27;8.60;;;;;;;4.17;70.72;96757.28;5070322;28;20036;-61
2022/02/18 00:57:41;;;;;;;12.88;7.57;;;;;;;4.18;70.53;96742.25;5070823;28;20033;-60
2022/02/18 01:00:09;;;;;;;11.88;7.78;;;;;;;4.19;71.18;96725.38;5070799;28;20025;-62
2022/02/18 01:02:35;;;;;;;9.90;7.53;;;;;;;4.14;70.62;96749.66;5070811;28;20811;-61
2022/02/18 01:05:00;;;;;;;10.45;7.57;;;;;;;4.05;70.44;96717.03;5070330;28;20073;-62
2022/02/18 01:07:26;;;;;;;10.82;7.47;;;;;;;4.15;70.55;96723.03;5070368;28;20029;-62
2022/02/18 01:09:53;;;;;;;9.70;7.35;;;;;;;4.21;70.66;96744.56;5070744;28;20056;-61
2022/02/18 01:12:19;;;;;;;9.07;6.40;;;;;;;4.30;70.31;96740.94;5071153;28;20044;-61
2022/02/18 01:14:45;;;;;;;9.57;6.63;;;;;;;4.20;70.38;96724.38;5070518;28;20064;-58
2022/02/18 01:17:11;;;;;;;10.18;6.68;;;;;;;4.22;70.96;96746.22;5072801;28;20025;-60
2022/02/18 01:19:37;;;;;;;7.90;5.93;;;;;;;4.26;71.04;96736.97;5074561;28;20033;-60
2022/02/18 01:22:03;;;;;;;9.15;6.53;;;;;;;4.27;70.46;96735.97;5074456;28;20599;-60
2022/02/18 01:24:29;;;;;;;11.35;7.03;;;;;;;4.15;71.17;96730.16;5074223;28;20035;-60
2022/02/18 01:26:54;;;;;;;8.25;6.18;;;;;;;4.08;70.67;96708.75;5074056;28;20028;-58
2022/02/18 01:29:20;;;;;;;9.27;6.63;;;;;;;4.28;70.57;96746.44;5073861;28;20029;-60
2022/02/18 01:31:45;;;;;;;8.48;6.35;;;;;;;4.30;70.11;96747.09;5074118;28;20036;-55
2022/02/18 01:34:11;;;;;;;9.90;7.22;;;;;;;4.22;70.68;96743.59;5074437;28;20035;-57
2022/02/18 01:36:36;;;;;;;9.88;6.78;;;;;;;4.04;71.01;96711.91;5073864;28;20025;-59
2022/02/18 01:39:03;;;;;;;8.93;6.50;;;;;;;4.28;70.82;96745.59;5074187;28;20020;-55
2022/02/18 01:41:29;;;;;;;8.52;6.45;;;;;;;4.05;71.31;96708.28;5073884;28;20028;-58
2022/02/18 01:43:56;;;;;;;8.63;6.50;;;;;;;4.31;71.79;96751.41;5073850;28;20051;-61
2022/02/18 01:46:23;;;;;;;7.68;5.65;;;;;;;4.15;71.45;96714.25;5074064;28;20035;-59
2022/02/18 01:48:49;;;;;;;10.02;6.60;;;;;;;4.38;70.94;96754.25;5073610;28;20035;-59
2022/02/18 01:51:19;;;;;;;10.05;6.55;;;;;;;4.41;71.17;96769.81;5073920;28;20119;-59
2022/02/18 01:53:47;;;;;;;7.30;5.57;;;;;;;4.42;70.79;96762.69;5074395;28;20025;-58
2022/02/18 01:56:13;;;;;;;8.85;6.30;;;;;;;4.41;71.36;96755.72;5073710;28;20020;-59
2022/02/18 01:58:39;;;;;;;7.57;6.00;;;;;;;4.44;70.70;96768.66;5073527;28;20377;-59
2022/02/18 02:01:05;;;;;;;8.63;6.05;;;;;;;4.41;70.67;96756.56;5074060;28;20035;-59
2022/02/18 02:03:31;;;;;;;8.95;6.43;;;;;;;4.38;71.47;96772.78;5073455;28;20035;-58
2022/02/18 02:05:59;;;;;;;7.97;6.05;;;;;;;4.40;71.01;96772.59;5073269;28;20115;-59
2022/02/18 02:08:27;;;;;;;8.65;6.63;;;;;;;4.31;70.98;96769.09;5074028;28;20025;-58
2022/02/18 02:10:54;;;;;;;9.55;6.25;;;;;;;4.41;70.86;96785.72;5073705;28;20040;-60
2022/02/18 02:13:31;;;;;;;9.63;6.53;;;;;;;4.45;70.87;96767.66;5073312;28;20054;-59
2022/02/18 02:15:57;;;;;;;8.57;6.10;;;;;;;4.35;71.83;96789.00;5073532;28;20469;-55
2022/02/18 02:18:22;;;;;;;7.13;5.55;;;;;;;4.29;71.57;96769.28;5073947;28;20045;-56
2022/02/18 02:20:48;;;;;;;8.07;5.88;;;;;;;4.27;71.81;96773.91;5073189;28;20032;-53
2022/02/18 02:23:15;;;;;;;8.02;5.95;;;;;;;4.37;71.28;96794.13;5073422;28;20362;-58
2022/02/18 02:25:40;;;;;;;9.68;6.50;;;;;;;4.37;71.56;96791.47;5073454;28;20040;-60
2022/02/18 02:28:06;;;;;;;7.57;5.80;;;;;;;4.33;71.91;96785.66;5073508;28;20020;-60
2022/02/18 02:30:31;;;;;;;8.80;5.78;;;;;;;4.36;71.49;96782.72;5072822;28;20036;-56
2022/02/18 02:32:57;;;;;;;7.80;5.80;;;;;;;4.35;71.60;96780.22;5055022;28;20381;-60
2022/02/18 02:35:22;;;;;;;8.52;6.20;;;;;;;4.34;71.92;96784.69;5073441;28;20064;-61
2022/02/18 02:37:48;;;;;;;7.75;5.25;;;;;;;4.26;72.39;96780.19;5073622;28;20385;-60
2022/02/18 02:40:18;;;;;;;9.82;5.60;;;;;;;4.30;71.39;96784.19;5072809;28;20462;-57
2022/02/18 02:42:44;;;;;;;6.43;5.40;;;;;;;4.38;71.65;96793.13;5072831;28;20024;-62
2022/02/18 02:45:10;;;;;;;7.68;5.50;;;;;;;4.38;71.41;96793.97;5073118;28;20033;-60
2022/02/18 02:47:38;;;;;;;6.22;4.78;;;;;;;4.35;71.42;96794.31;5073077;28;20104;-59
2022/02/18 02:50:04;;;;;;;7.00;5.03;;;;;;;4.35;71.74;96799.59;5072912;28;20028;-61
2022/02/18 02:52:30;;;;;;;6.53;5.05;;;;;;;4.12;71.90;96756.94;5072420;28;20082;-61
2022/02/18 02:54:56;;;;;;;7.28;5.50;;;;;;;4.41;70.99;96800.75;5072886;28;20036;-60
2022/02/18 02:57:21;;;;;;;8.43;5.18;;;;;;;4.44;71.50;96793.31;5072950;28;20090;-60
2022/02/18 02:59:47;;;;;;;6.47;5.07;;;;;;;4.40;71.55;96791.16;5072930;28;20462;-61
2022/02/18 03:02:13;;;;;;;7.00;4.70;;;;;;;4.38;71.43;96809.88;5072477;28;20031;-58
2022/02/18 03:04:38;;;;;;;7.13;4.95;;;;;;;4.32;71.19;96799.88;5072739;28;20024;-58
2022/02/18 03:07:04;;;;;;;7.35;5.07;;;;;;;4.40;71.67;96825.59;5072760;28;20385;-60
2022/02/18 03:09:30;;;;;;;7.85;4.97;;;;;;;4.41;71.47;96827.25;5072523;28;20032;-60
2022/02/18 03:11:55;;;;;;;6.18;4.90;;;;;;;4.38;71.32;96817.81;5071873;28;20397;-59
2022/02/18 03:14:21;;;;;;;6.60;5.28;;;;;;;4.50;70.78;96839.56;5072487;28;20024;-58
2022/02/18 03:16:47;;;;;;;8.20;5.43;;;;;;;4.47;70.70;96836.38;5072834;28;20100;-60
2022/02/18 03:19:12;;;;;;;8.00;5.22;;;;;;;4.46;71.45;96838.19;5072037;28;20469;-59
2022/02/18 03:21:37;;;;;;;6.88;5.32;;;;;;;4.50;70.86;96841.38;5071913;28;20037;-60
2022/02/18 03:24:03;;;;;;;7.78;5.43;;;;;;;4.48;70.70;96830.94;5071855;28;20040;-59
2022/02/18 03:26:29;;;;;;;7.15;5.35;;;;;;;4.45;71.33;96836.53;5071994;28;20025;-57
2022/02/18 03:28:54;;;;;;;8.35;5.15;;;;;;;4.55;70.44;96831.94;5071849;28;20028;-58
2022/02/18 03:31:20;;;;;;;7.65;5.70;;;;;;;4.49;70.79;96831.75;5072010;28;20158;-59
2022/02/18 03:33:45;;;;;;;8.00;5.63;;;;;;;4.40;71.14;96826.44;5071950;28;20032;-58
2022/02/18 03:36:11;;;;;;;7.80;5.88;;;;;;;4.50;70.53;96841.38;5071622;28;20038;-61
2022/02/18 03:38:37;;;;;;;10.07;5.53;;;;;;;4.51;70.88;96827.97;5071062;28;20032;-59
2022/02/18 03:41:03;;;;;;;7.95;5.72;;;;;;;4.47;71.07;96833.72;5071815;28;20098;-57
2022/02/18 03:43:28;;;;;;;7.32;5.15;;;;;;;4.49;71.10;96839.69;5071543;28;20469;-58
2022/02/18 03:45:54;;;;;;;8.40;5.68;;;;;;;4.44;71.48;96834.88;5071312;28;20114;-56
2022/02/18 03:48:20;;;;;;;6.93;5.30;;;;;;;4.52;71.45;96852.63;5072183;28;20114;-57
2022/02/18 03:50:46;;;;;;;9.48;6.03;;;;;;;4.56;71.11;96853.97;5071490;28;20068;-58
2022/02/18 03:53:11;;;;;;;7.85;5.68;;;;;;;4.55;70.81;96853.16;5071366;28;20056;-52
2022/02/18 03:55:38;;;;;;;8.57;5.75;;;;;;;4.58;70.65;96862.59;5071558;28;20033;-54
2022/02/18 03:58:04;;;;;;;10.20;6.32;;;;;;;4.54;71.12;96854.13;5071502;28;20021;-55
2022/02/18 04:00:30;;;;;;;9.25;5.93;;;;;;;4.42;70.68;96837.69;5070969;28;20094;-61
2022/02/18 04:02:55;;;;;;;10.30;6.25;;;;;;;4.50;71.28;96852.81;5071349;28;20461;-61
2022/02/18 04:05:21;;;;;;;10.00;6.22;;;;;;;4.52;70.84;96857.94;5071846;28;20068;-54
2022/02/18 04:07:47;;;;;;;8.13;6.05;;;;;;;4.47;71.16;96866.38;5070855;28;20028;-56
2022/02/18 04:10:12;;;;;;;10.63;6.63;;;;;;;4.32;71.36;96839.63;5071044;28;20067;-55
2022/02/18 04:12:38;;;;;;;9.18;6.63;;;;;;;4.45;71.73;96861.22;5053549;28;20024;-57
2022/02/18 04:15:04;;;;;;;9.43;6.65;;;;;;;4.45;71.18;96861.22;5071176;28;20044;-57
2022/02/18 04:17:30;;;;;;;8.75;6.55;;;;;;;4.48;71.72;96875.13;5070834;28;20052;-58
2022/02/18 04:19:56;;;;;;;10.73;6.90;;;;;;;4.46;71.57;96877.94;5071066;28;20158;-58
2022/02/18 04:22:21;;;;;;;11.05;7.00;;;;;;;4.46;71.85;96880.56;5071549;28;20033;-56
2022/02/18 04:24:47;;;;;;;10.23;6.95;;;;;;;4.41;71.46;96886.38;5071353;28;20458;-57
2022/02/18 04:27:13;;;;;;;11.93;6.78;;;;;;;4.33;72.02;96874.91;5070615;28;20362;-57
2022/02/18 04:29:38;;;;;;;12.32;7.22;;;;;;;4.38;71.95;96889.34;5070817;28;20103;-57
2022/02/18 04:32:05;;;;;;;11.02;7.13;;;;;;;4.40;71.75;96889.16;5071255;28;20036;-53
2022/02/18 04:34:30;;;;;;;10.80;7.20;;;;;;;4.39;72.38;96891.00;5071027;28;20044;-54
2022/02/18 04:36:56;;;;;;;11.90;7.75;;;;;;;4.38;72.32;96894.63;5070765;28;20029;-56
2022/02/18 04:39:22;;;;;;;13.52;7.72;;;;;;;4.35;72.75;96889.66;5070941;28;20370;-60
2022/02/18 04:41:47;;;;;;;11.73;7.38;;;;;;;4.45;72.72;96898.31;5071285;28;20473;-60
2022/02/18 04:44:16;;;;;;;10.77;7.53;;;;;;;4.48;72.14;96896.31;5070902;28;20041;-52
2022/02/18 04:46:43;;;;;;;10.57;7.07;;;;;;;4.31;72.01;96867.94;5070358;28;20028;-59
2022/02/18 04:49:08;;;;;;;10.43;7.05;;;;;;;4.50;71.95;96902.28;5070140;28;20111;-55
2022/02/18 04:51:37;;;;;;;10.27;7.00;;;;;;;4.48;71.80;96905.13;5069669;28;20525;-54
2022/02/18 04:54:03;;;;;;;10.13;6.88;;;;;;;4.50;72.17;96891.69;5070147;28;20535;-59
2022/02/18 04:56:29;;;;;;;9.68;6.93;;;;;;;4.47;72.00;96907.91;5069947;28;20032;-59
2022/02/18 04:58:55;;;;;;;9.77;6.20;;;;;;;4.48;72.09;96907.78;5070440;28;20142;-59
2022/02/18 05:01:20;;;;;;;12.10;6.57;;;;;;;4.49;71.51;96914.72;5070957;28;20081;-56
2022/02/18 05:03:46;;;;;;;10.23;6.82;;;;;;;4.34;71.66;96888.00;5070518;28;20029;-58
2022/02/18 05:06:12;;;;;;;8.48;6.35;;;;;;;4.44;72.00;96912.53;5070577;28;20491;-59
2022/02/18 05:08:38;;;;;;;8.38;6.32;;;;;;;4.42;71.95;96911.03;5070250;28;20032;-60
2022/02/18 05:11:03;;;;;;;10.63;6.70;;;;;;;4.36;72.02;96904.56;5070647;28;20025;-60
2022/02/18 05:13:29;;;;;;;10.80;6.47;;;;;;;4.47;72.07;96913.22;5052041;28;20028;-59
2022/02/18 05:15:54;;;;;;;10.35;6.43;;;;;;;4.36;71.84;96898.41;5070286;28;20035;-59
2022/02/18 05:18:20;;;;;;;8.70;6.57;;;;;;;4.51;71.57;96920.69;5069965;28;20051;-60
2022/02/18 05:20:45;;;;;;;10.73;6.85;;;;;;;4.48;71.36;96923.66;5069984;28;20044;-59
2022/02/18 05:23:11;;;;;;;10.13;6.60;;;;;;;4.47;71.63;96918.50;5070227;28;20040;-55
2022/02/18 05:25:36;;;;;;;9.80;6.75;;;;;;;4.51;71.48;96925.16;5070095;28;20197;-58
2022/02/18 05:28:03;;;;;;;11.60;7.10;;;;;;;4.34;71.66;96898.59;5070399;28;20431;-59
2022/02/18 05:30:29;;;;;;;9.05;6.93;;;;;;;4.40;71.38;96905.91;5070192;28;20044;-54
2022/02/18 05:32:55;;;;;;;7.90;6.30;;;;;;;4.56;71.95;96947.56;5070334;28;20174;-59
2022/02/18 05:35:20;;;;;;;12.10;7.28;;;;;;;4.58;71.44;96942.06;5069922;28;20036;-60
2022/02/18 05:37:46;;;;;;;13.95;7.10;;;;;;;4.47;71.60;96935.25;5070269;28;20036;-57
2022/02/18 05:40:12;;;;;;;9.43;6.75;;;;;;;4.51;72.27;96943.69;5069815;28;20118;-61
2022/02/18 05:42:37;;;;;;;10.75;7.55;;;;;;;4.50;72.92;96950.00;5069878;28;20477;-60
2022/02/18 05:45:03;;;;;;;11.23;7.47;;;;;;;4.51;72.15;96954.28;5070221;28;20086;-62
2022/02/18 05:47:36;;;;;;;10.25;6.80;;;;;;;4.54;71.82;96956.63;5070218;28;20029;-57
2022/02/18 05:50:11;;;;;;;10.88;7.57;;;;;;;4.51;72.49;96962.25;5069950;28;20039;-57
2022/02/18 05:52:41;;;;;;;11.82;7.28;;;;;;;4.29;72.36;96937.94;5070471;28;20489;-58
2022/02/18 05:55:07;;;;;;;9.85;6.97;;;;;;;4.47;72.40;96971.50;5069686;28;20039;-60
2022/02/18 05:57:33;;;;;;;18.75;7.82;;;;;;;4.44;72.25;96948.78;5069776;28;20146;-58
2022/02/18 05:59:59;;;;;;;9.88;7.03;;;;;;;4.49;72.32;96969.53;5070484;28;20094;-61
2022/02/18 06:02:25;;;;;;;12.93;7.55;;;;;;;4.48;72.30;96966.06;5070726;28;20024;-59
2022/02/18 06:04:50;;;;;;;10.00;6.90;;;;;;;4.53;71.82;96965.56;5073396;28;20912;-60
2022/02/18 06:07:16;;;;;;;11.25;7.03;;;;;;;4.36;72.48;96943.44;5073495;28;20028;-61
2022/02/18 06:09:43;;;;;;;10.05;7.18;;;;;;;4.44;72.65;96969.97;5073639;28;20033;-61
2022/02/18 06:12:09;;;;;;;12.05;7.50;;;;;;;4.45;72.63;96972.50;5072796;28;20123;-56
2022/02/18 06:14:34;;;;;;;11.60;7.47;;;;;;;4.49;72.83;96980.97;5072662;28;20115;-59
2022/02/18 06:17:00;;;;;;;11.50;7.45;;;;;;;4.49;73.09;96996.00;5073643;28;20377;-58
2022/02/18 06:19:25;;;;;;;11.20;6.93;;;;;;;4.52;72.12;96983.31;5073621;28;20086;-56
2022/02/18 06:21:51;;;;;;;11.73;7.20;;;;;;;4.55;72.78;96992.75;5072892;28;20535;-61
2022/02/18 06:24:16;;;;;;;11.13;7.18;;;;;;;4.56;72.22;96994.41;5072874;28;20044;-57
2022/02/18 06:26:42;;;;;;;11.63;6.90;;;;;;;4.56;72.06;96999.69;5073646;28;20067;-56
2022/02/18 06:29:07;;;;;;;8.82;5.90;;;;;;;4.56;72.13;96999.69;5073581;28;20021;-61
2022/02/18 06:31:33;;;;;;;11.00;7.30;;;;;;;4.54;72.43;96991.06;5072434;28;20029;-57
2022/02/18 06:33:59;;;;;;;9.32;6.13;;;;;;;4.27;72.63;96955.81;5073166;28;20462;-61
2022/02/18 06:36:25;;;;;;;10.98;6.88;;;;;;;4.55;71.78;96998.03;5073274;28;20028;-59
2022/02/18 06:38:50;;;;;;;9.73;5.95;;;;;;;4.59;72.47;96999.41;5073241;28;20069;-55
2022/02/18 06:41:16;;;;;;;9.13;6.00;;;;;;;4.59;71.76;97010.81;5072538;28;20024;-58
2022/02/18 06:43:42;;;;;;;13.68;7.18;;;;;;;4.58;72.01;97006.50;5072761;28;20086;-59
2022/02/18 06:46:07;;;;;;;9.68;6.40;;;;;;;4.68;71.92;97011.72;5073281;28;20378;-59
2022/02/18 06:48:33;;;;;;;9.65;6.28;;;;;;;4.68;72.11;97009.06;5073588;28;20647;-55
2022/02/18 06:50:58;;;;;;;11.30;5.82;;;;;;;4.76;72.12;97016.25;5054670;28;20540;-59
2022/02/18 06:53:24;;;;;;;7.68;5.47;;;;;;;4.77;71.45;97019.72;5072500;28;20047;-60
2022/02/18 06:55:50;;;;;;;8.73;6.22;;;;;;;4.84;71.23;97026.06;5072825;28;20040;-58
2022/02/18 06:58:16;;;;;;;11.23;6.55;;;;;;;4.72;71.67;97007.75;5072852;28;20113;-59
2022/02/18 07:00:41;;;;;;;9.50;5.65;;;;;;;4.81;71.44;97026.34;5072502;28;20082;-58
2022/02/18 07:03:07;;;;;;;10.80;6.35;;;;;;;4.79;71.47;97028.34;5072276;28;20103;-57
2022/02/18 07:05:33;;;;;;;12.85;6.45;;;;;;;4.86;71.60;97032.84;5073168;28;20025;-57
2022/02/18 07:08:00;;;;;;;10.38;6.60;;;;;;;4.92;71.94;97041.16;5072650;28;20028;-61
2022/02/18 07:10:25;;;;;;;9.27;6.35;;;;;;;4.93;71.28;97033.06;5072186;28;20047;-57
2022/02/18 07:12:51;;;;;;;9.75;6.28;;;;;;;4.98;70.96;97041.38;5072113;28;20469;-59
2022/02/18 07:15:16;;;;;;;12.23;6.47;;;;;;;5.07;70.73;97052.06;5070919;28;20028;-59
2022/02/18 07:17:42;;;;;;;8.55;5.65;;;;;;;5.06;70.92;97051.19;5071804;28;20094;-60
2022/02/18 07:20:09;;;;;;;9.88;6.28;;;;;;;5.05;70.82;97059.31;5072272;28;20040;-59
2022/02/18 07:22:37;;;;;;;10.90;6.90;;;;;;;5.07;71.16;97062.66;5072356;28;20064;-52
2022/02/18 07:25:05;;;;;;;11.35;6.78;;;;;;;5.04;71.04;97077.06;5072856;28;20120;-62
2022/02/18 07:27:30;;;;;;;8.90;6.20;;;;;;;5.01;71.56;97082.66;5071944;28;20032;-60
2022/02/18 07:29:56;;;;;;;9.00;5.90;;;;;;;5.01;71.22;97095.94;5071911;28;20432;-56
2022/02/18 07:32:24;;;;;;;10.20;5.65;;;;;;;4.99;71.22;97095.25;5072277;28;20056;-58
2022/02/18 07:34:50;;;;;;;6.22;4.75;;;;;;;5.02;70.26;97106.38;5071485;28;20028;-64
2022/02/18 07:37:16;;;;;;;6.40;3.80;;;;;;;4.95;70.38;97110.63;5071770;28;20029;-65
2022/02/18 07:39:42;;;;;;;5.90;3.58;;;;;;;4.93;70.22;97114.41;5072170;28;20043;-63
2022/02/18 07:42:09;;;;;;;4.35;2.55;;;;;;;4.93;69.82;97112.59;5071361;28;20028;-57
2022/02/18 07:44:35;;;;;;;4.70;2.50;;;;;;;4.88;69.87;97118.38;5071568;28;20470;-68
2022/02/18 07:47:01;;;;;;;4.90;2.20;;;;;;;4.88;70.17;97112.25;5071856;28;20040;-64
2022/02/18 07:49:26;;;;;;;4.95;2.05;;;;;;;5.03;69.02;97131.88;5053472;28;20036;-56
2022/02/18 07:51:52;;;;;;;2.33;1.67;;;;;;;5.10;69.05;97144.56;5071340;28;20044;-62
2022/02/18 07:54:17;;;;;;;3.22;1.83;;;;;;;5.17;68.22;97149.06;5071701;28;20032;-61
2022/02/18 07:56:43;;;;;;;2.95;1.35;;;;;;;5.21;68.12;97148.78;5071393;28;20085;-59
2022/02/18 07:59:09;;;;;;;1.65;1.30;;;;;;;5.25;67.83;97163.38;5071369;28;20035;-63
2022/02/18 08:01:35;;;;;;;3.78;1.60;;;;;;;5.29;67.84;97157.59;5072073;28;20397;-57
2022/02/18 08:04:00;;;;;;;3.03;1.80;;;;;;;5.35;67.35;97160.63;5071992;28;20128;-61
2022/02/18 08:06:26;;;;;;;3.25;1.40;;;;;;;5.38;67.19;97165.63;5071591;28;20120;-57
2022/02/18 08:08:53;;;;;;;2.55;1.50;;;;;;;5.37;67.13;97166.59;5071146;28;20039;-59
2022/02/18 08:11:19;;;;;;;3.85;2.33;;;;;;;5.08;66.61;97131.44;5071239;28;20040;-59
2022/02/18 08:13:45;;;;;;;3.85;1.70;;;;;;;5.21;66.99;97165.50;5071734;28;20035;-58
2022/02/18 08:16:10;;;;;;;3.03;1.63;;;;;;;5.24;67.46;97185.59;5071012;28;20032;-60
2022/02/18 08:18:39;;;;;;;5.00;1.67;;;;;;;5.24;67.51;97182.94;5071104;28;20446;-59
2022/02/18 08:21:05;;;;;;;4.53;2.13;;;;;;;5.35;67.58;97197.78;5053766;28;20382;-61
2022/02/18 08:23:30;;;;;;;5.55;2.40;;;;;;;5.34;67.30;97175.69;5071457;28;20031;-58
2022/02/18 08:25:56;;;;;;;6.65;2.25;;;;;;;5.39;67.33;97178.72;5071147;28;20343;-62
2022/02/18 08:28:21;;;;;;;7.78;3.60;;;;;;;5.52;66.16;97196.03;5071140;28;20036;-57
2022/02/18 08:30:48;;;;;;;4.93;2.47;;;;;;;5.54;66.38;97202.84;5071544;28;20029;-62
2022/02/18 08:33:13;;;;;;;6.18;2.20;;;;;;;5.54;65.94;97202.84;5071573;28;20024;-57
2022/02/18 08:35:40;;;;;;;4.57;2.22;;;;;;;5.60;65.89;97199.59;5070994;28;20028;-56
2022/02/18 08:38:06;;;;;;;4.18;2.03;;;;;;;5.60;65.17;97186.31;5052764;28;20032;-57
2022/02/18 08:40:33;;;;;;;3.53;1.80;;;;;;;5.92;65.02;97220.31;5070813;28;20469;-59
2022/02/18 08:43:01;;;;;;;3.53;2.10;;;;;;;5.99;64.54;97213.38;5071295;28;20032;-58
2022/02/18 08:45:30;;;;;;;5.82;2.55;;;;;;;6.04;63.85;97221.75;5070853;28;20040;-56
2022/02/18 08:47:57;;;;;;;5.35;2.22;;;;;;;6.20;63.58;97222.78;5070229;28;20465;-58
2022/02/18 08:50:22;;;;;;;4.13;2.03;;;;;;;6.19;63.38;97219.31;5071031;28;20029;-58
2022/02/18 08:52:48;;;;;;;4.35;1.80;;;;;;;6.16;63.09;97223.09;5070824;28;20037;-63
2022/02/18 08:55:15;;;;;;;2.42;1.90;;;;;;;6.18;63.33;97230.94;5070687;28;20127;-61
2022/02/18 08:57:46;;;;;;;6.25;1.60;;;;;;;6.38;62.78;97231.50;5070578;28;20033;-58
2022/02/18 09:00:13;;;;;;;2.40;1.80;;;;;;;6.89;61.50;97226.13;5070760;28;20063;-59
2022/02/18 09:02:39;;;;;;;4.88;2.15;;;;;;;7.41;59.36;97229.44;5071265;28;20047;-62
2022/02/18 09:05:07;;;;;;;5.07;1.92;;;;;;;7.67;58.54;97240.88;5067835;28;20028;-60
2022/02/18 09:07:32;;;;;;;4.45;2.60;;;;;;;7.67;58.01;97235.56;5048459;28;20035;-55
2022/02/18 09:09:58;;;;;;;9.45;2.25;;;;;;;7.66;58.44;97244.53;5048824;28;20029;-61
2022/02/18 09:12:26;;;;;;;7.18;2.10;;;;;;;7.60;58.23;97249.56;5049723;28;20172;-59
2022/02/18 09:14:52;;;;;;;5.20;1.98;;;;;;;7.44;58.16;97247.75;5049714;28;20041;-58
2022/02/18 09:17:18;;;;;;;3.00;2.00;;;;;;;7.46;57.99;97251.06;5049676;28;20078;-59
2022/02/18 09:19:44;;;;;;;6.72;2.70;;;;;;;7.53;57.86;97251.22;5049936;28;20123;-57
2022/02/18 09:22:10;;;;;;;2.92;2.10;;;;;;;7.66;57.98;97261.38;5061013;28;20174;-58
2022/02/18 09:24:35;;;;;;;3.10;2.40;;;;;;;7.78;56.62;97255.66;5070060;28;20462;-57
2022/02/18 09:27:01;;;;;;;4.30;2.63;;;;;;;7.87;55.79;97266.16;5070328;28;20088;-57
2022/02/18 09:29:27;;;;;;;4.30;2.30;;;;;;;7.99;55.90;97271.13;5069610;28;20072;-62
2022/02/18 09:31:54;;;;;;;2.75;2.10;;;;;;;8.04;54.84;97274.09;5070446;28;20028;-63
2022/02/18 09:34:20;;;;;;;5.43;2.20;;;;;;;7.86;55.42;97271.66;5070829;28;20408;-64
2022/02/18 09:36:46;;;;;;;3.70;1.60;;;;;;;7.49;54.78;97244.59;5070204;28;20028;-63
2022/02/18 09:39:12;;;;;;;4.93;1.77;;;;;;;7.49;55.48;97271.22;5073708;28;20032;-63
2022/02/18 09:41:41;;;;;;;2.58;1.77;;;;;;;7.50;55.34;97280.84;5074555;28;20020;-62
2022/02/18 09:44:09;;;;;;;2.03;1.48;;;;;;;7.37;55.20;97241.44;5074523;28;20056;-63
2022/02/18 09:46:38;;;;;;;4.30;1.75;;;;;;;7.38;54.76;97228.94;5039476;28;20036;-64
2022/02/18 09:49:04;;;;;;;3.75;2.20;;;;;;;7.59;55.08;97286.97;5074330;28;20036;-65
2022/02/18 09:51:30;;;;;;;2.78;2.10;;;;;;;7.55;55.23;97272.34;5074066;28;20431;-62
2022/02/18 09:53:58;;;;;;;2.72;1.98;;;;;;;7.65;54.95;97281.00;5073679;28;20028;-63
2022/02/18 09:56:24;;;;;;;2.25;1.52;;;;;;;7.72;54.18;97283.84;5072506;28;20024;-66
2022/02/18 09:58:52;;;;;;;2.85;1.98;;;;;;;7.78;54.43;97282.31;5074111;28;20033;-62
2022/02/18 10:01:18;;;;;;;4.35;2.58;;;;;;;7.86;54.32;97295.63;5073678;28;20028;-61
2022/02/18 10:03:44;;;;;;;6.78;2.47;;;;;;;8.01;53.81;97301.09;5070074;28;20032;-64
2022/02/18 10:06:09;;;;;;;7.43;2.40;;;;;;;8.17;53.07;97300.22;5073915;28;20474;-60
2022/02/18 10:08:45;;;;;;;4.90;1.90;;;;;;;8.06;52.60;97306.75;5073721;28;20068;-57
2022/02/18 10:11:11;;;;;;;3.13;1.90;;;;;;;7.76;53.35;97319.78;5073591;28;20037;-60
2022/02/18 10:13:39;;;;;;;6.43;2.17;;;;;;;7.28;54.65;97304.47;5072981;28;20036;-63
2022/02/18 10:16:11;;;;;;;2.80;1.73;;;;;;;7.14;55.77;97348.53;5073184;28;20054;-62
2022/02/18 10:18:45;;;;;;;1.38;1.10;;;;;;;6.73;57.17;97359.88;5073531;28;20118;-62
2022/02/18 10:21:23;;;;;;;2.90;0.95;;;;;;;6.34;58.13;97367.50;5073588;28;20379;-57
2022/02/18 10:23:49;;;;;;;4.28;1.00;;;;;;;6.00;58.92;97371.75;5072652;28;20020;-69
2022/02/18 10:26:16;;;;;;;6.63;2.45;;;;;;;5.73;59.82;97377.03;5073398;28;20036;-65
2022/02/18 10:28:54;;;;;;;13.60;4.57;;;;;;;5.62;60.64;97373.78;5055512;28;20041;-72
2022/02/18 10:31:19;;;;;;;13.80;4.97;;;;;;;5.54;61.66;97372.72;5072897;28;20410;-69
2022/02/18 10:33:59;;;;;;;12.40;4.43;;;;;;;5.65;61.83;97395.53;5073385;28;20031;-68
2022/02/18 10:36:44;;;;;;;5.88;2.80;;;;;;;5.60;61.61;97397.81;5073135;28;20028;-67
2022/02/18 10:39:27;;;;;;;4.30;1.90;;;;;;;5.68;61.13;97407.69;5073640;28;20029;-66
2022/02/18 10:41:59;;;;;;;1.85;0.95;;;;;;;5.74;61.02;97399.09;5072509;28;20253;-70
2022/02/18 10:44:33;;;;;;;3.03;1.00;;;;;;;6.09;59.99;97410.69;5054911;28;20077;-67
2022/02/18 10:47:05;;;;;;;4.47;1.30;;;;;;;6.25;58.86;97409.97;5073374;28;20390;-69
2022/02/18 10:49:33;;;;;;;12.05;2.75;;;;;;;6.47;58.03;97421.88;5073109;28;20060;-69
2022/02/18 10:52:03;;;;;;;1.13;0.85;;;;;;;6.65;57.16;97423.66;5071487;28;20031;-68
2022/02/18 10:54:33;;;;;;;1.35;0.82;;;;;;;6.81;56.32;97430.06;5072142;28;20032;-67
2022/02/18 10:57:31;;;;;;;3.53;1.20;;;;;;;7.03;56.30;97441.94;5073227;28;20059;-67
2022/02/18 10:59:57;;;;;;;2.75;1.13;;;;;;;6.98;54.71;97433.63;5017506;28;20527;-67
2022/02/18 11:02:38;;;;;;;2.15;0.93;;;;;;;7.06;54.75;97443.47;5072589;28;20070;-66
2022/02/18 11:05:30;;;;;;;2.28;1.00;;;;;;;6.86;54.97;97451.69;5072660;28;20037;-69
2022/02/18 11:07:57;;;;;;;7.30;1.30;;;;;;;6.71;55.00;97459.44;5072351;28;20359;-69
2022/02/18 11:10:28;;;;;;;2.20;1.00;;;;;;;6.79;55.69;97454.13;5072449;28;20108;-67
2022/02/18 11:12:56;;;;;;;3.90;1.65;;;;;;;6.91;55.14;97465.34;5072787;28;20512;-68
2022/02/18 11:15:22;;;;;;;2.80;1.40;;;;;;;6.92;53.92;97456.38;5072884;28;20036;-67
2022/02/18 11:17:49;;;;;;;2.67;1.15;;;;;;;6.98;54.25;97466.34;5072938;28;20055;-63
2022/02/18 11:20:15;;;;;;;1.42;0.90;;;;;;;6.89;53.72;97469.97;5073036;28;20059;-68
2022/02/18 11:22:44;;;;;;;1.25;0.60;;;;;;;6.91;53.97;97469.84;5072893;28;20052;-68
2022/02/18 11:25:11;;;;;;;1.85;1.20;;;;;;;6.64;53.49;97448.59;5054121;28;20343;-67
2022/02/18 11:27:38;;;;;;;2.72;0.90;;;;;;;6.78;53.19;97478.25;5072095;28;20458;-66
2022/02/18 11:30:05;;;;;;;1.88;0.80;;;;;;;6.77;53.11;97490.69;5072607;28;20116;-69
2022/02/18 11:32:43;;;;;;;1.90;0.90;;;;;;;6.71;53.45;97462.09;5071991;28;20029;-67
2022/02/18 11:35:18;;;;;;;1.73;1.10;;;;;;;7.02;52.62;97498.81;5071945;28;20130;-67
2022/02/18 11:38:17;;;;;;;1.30;0.57;;;;;;;7.10;52.13;97495.34;5072858;28;20045;-68